Time;durP1;ratioP1;P1;durP2;ratioP2;P2;SDS_P1;SDS_P2;PMS_P1;PMS_P2;Temp;Humidity;BMP_temperature;BMP_pressure;BME280_temperature;BME280_humidity;BME280_pressure;Samples;Min_cycle;Max_cycle;Signal;HPM_P1;HPM_P2
2021/10/23 00:01:31;;;;;;;;;1.00;1.00;;;;;18.02;55.47;98422.56;4956377;28;102410;-83
2021/10/23 00:03:59;;;;;;;;;1.00;1.00;;;;;18.01;56.19;98423.66;4925032;28;102188;-83
2021/10/23 00:06:26;;;;;;;;;1.00;1.00;;;;;18.00;55.84;98428.31;4945668;28;104186;-83
2021/10/23 00:08:55;;;;;;;;;1.00;1.00;;;;;18.01;56.06;98423.66;4913951;28;104064;-84
2021/10/23 00:11:22;;;;;;;;;2.00;1.00;;;;;17.99;55.63;98429.38;4942411;28;102306;-83
2021/10/23 00:13:50;;;;;;;;;2.00;1.00;;;;;17.99;55.40;98434.03;4955885;28;110489;-84
2021/10/23 00:16:17;;;;;;;;;1.00;1.00;;;;;17.98;56.00;98421.41;4953549;28;102542;-84
2021/10/23 00:18:44;;;;;;;;;1.00;1.00;;;;;17.98;55.90;98418.69;4950910;28;104094;-84
2021/10/23 00:21:11;;;;;;;;;2.00;1.00;;;;;17.98;55.90;98410.47;4954922;28;102249;-85
2021/10/23 00:23:38;;;;;;;;;1.00;1.00;;;;;17.96;56.14;98416.22;4959598;28;102200;-84
2021/10/23 00:26:06;;;;;;;;;0.33;0.00;;;;;17.95;55.78;98406.34;4949558;28;102403;-84
2021/10/23 00:28:33;;;;;;;;;1.00;1.00;;;;;17.96;55.50;98421.69;4952305;28;104079;-83
2021/10/23 00:31:02;;;;;;;;;2.00;1.00;;;;;17.95;55.48;98428.22;4951202;28;102576;-84
2021/10/23 00:33:29;;;;;;;;;3.00;2.00;;;;;17.95;55.60;98433.69;4947250;28;102583;-84
2021/10/23 00:35:56;;;;;;;;;1.33;1.00;;;;;17.95;55.45;98446.53;4943927;28;102561;-85
2021/10/23 00:38:23;;;;;;;;;1.00;1.00;;;;;17.95;55.48;98444.66;4944915;28;104164;-84
2021/10/23 00:40:50;;;;;;;;;1.33;1.33;;;;;17.95;55.42;98460.22;4938351;28;102107;-85
2021/10/23 00:43:18;;;;;;;;;1.00;0.00;;;;;17.93;56.09;98457.72;4953153;28;102134;-85
2021/10/23 00:45:46;;;;;;;;;1.00;1.00;;;;;17.94;55.62;98458.56;4952067;28;103380;-84
2021/10/23 00:48:14;;;;;;;;;2.00;1.00;;;;;17.93;56.41;98473.31;4946431;28;104041;-85
2021/10/23 00:50:41;;;;;;;;;0.00;0.00;;;;;17.92;56.03;98456.06;4932935;28;102405;-85
2021/10/23 00:53:08;;;;;;;;;2.00;1.00;;;;;17.91;56.20;98461.81;4926595;28;103829;-84
2021/10/23 00:55:35;;;;;;;;;1.33;1.33;;;;;17.91;55.17;98472.75;4933407;28;102256;-84
2021/10/23 00:58:05;;;;;;;;;1.67;1.00;;;;;17.89;56.20;98474.91;4953339;28;104484;-85
2021/10/23 01:00:32;;;;;;;;;1.00;1.00;;;;;17.89;55.72;98478.47;4953625;28;102545;-84
2021/10/23 01:02:59;;;;;;;;;1.67;1.00;;;;;17.90;55.71;98490.25;4886667;28;102609;-84
2021/10/23 01:05:26;;;;;;;;;1.00;1.00;;;;;17.89;56.12;98494.88;4918955;28;102656;-85
2021/10/23 01:07:53;;;;;;;;;1.00;0.00;;;;;17.89;55.69;98496.78;4935882;28;104165;-84
2021/10/23 01:10:20;;;;;;;;;0.00;0.00;;;;;17.89;56.24;98505.00;4915709;28;103998;-84
2021/10/23 01:12:48;;;;;;;;;0.33;0.33;;;;;17.89;55.96;98502.25;4951779;28;102258;-84
2021/10/23 01:15:25;;;;;;;;;2.33;1.00;;;;;17.88;55.72;98495.16;4949257;28;103719;-85
2021/10/23 01:17:53;;;;;;;;;1.00;1.00;;;;;17.87;56.19;98505.25;4948330;28;104094;-84
2021/10/23 01:20:20;;;;;;;;;1.00;1.00;;;;;17.87;55.97;98502.53;4911241;28;104068;-85
2021/10/23 01:22:48;;;;;;;;;2.00;1.00;;;;;17.87;55.61;98502.53;4943184;28;102293;-85
2021/10/23 01:25:16;;;;;;;;;1.00;1.00;;;;;17.87;55.70;98508.00;4930325;28;102233;-84
2021/10/23 01:27:43;;;;;;;;;1.00;1.00;;;;;17.88;55.50;98503.34;4931498;28;104067;-82
2021/10/23 01:30:11;;;;;;;;;2.00;1.00;;;;;17.87;55.90;98504.44;4933921;28;102463;-85
2021/10/23 01:32:39;;;;;;;;;1.00;1.00;;;;;17.86;55.67;98514.53;4955753;28;102233;-84
2021/10/23 01:35:07;;;;;;;;;1.67;1.00;;;;;17.86;55.56;98519.19;4946217;28;102155;-84
2021/10/23 01:37:39;;;;;;;;;2.00;1.00;;;;;17.84;55.21;98511.22;4944259;28;112891;-84
2021/10/23 01:40:08;;;;;;;;;1.33;1.00;;;;;17.85;55.15;98526.56;4944153;28;102601;-84
2021/10/23 01:42:35;;;;;;;;;0.33;0.33;;;;;17.86;56.12;98524.66;4933110;28;102408;-84
2021/10/23 01:45:04;;;;;;;;;1.00;1.00;;;;;17.86;56.05;98527.38;4955152;28;102393;-84
2021/10/23 01:47:31;;;;;;;;;0.00;0.00;;;;;17.83;55.94;98526.78;4946026;28;104022;-83
2021/10/23 01:49:58;;;;;;;;;1.67;1.00;;;;;17.84;55.93;98522.97;4941612;28;102082;-84
2021/10/23 01:52:25;;;;;;;;;1.00;0.67;;;;;17.85;55.95;98548.44;4953566;28;105178;-84
2021/10/23 01:54:52;;;;;;;;;1.00;1.00;;;;;17.84;55.71;98552.25;4939483;28;104402;-83
2021/10/23 01:57:20;;;;;;;;;1.00;0.33;;;;;17.83;56.01;98556.88;4950506;28;104211;-84
2021/10/23 01:59:48;;;;;;;;;2.00;1.00;;;;;17.84;56.10;98564.00;4962745;28;102005;-84
2021/10/23 02:02:15;;;;;;;;;1.00;1.00;;;;;17.83;56.18;98578.75;4955624;28;102158;-84
2021/10/23 02:04:43;;;;;;;;;1.00;1.00;;;;;17.82;55.68;98576.28;4956619;28;102571;-82
2021/10/23 02:07:10;;;;;;;;;1.33;0.00;;;;;17.82;56.14;98571.66;4932909;28;103659;-83
2021/10/23 02:09:37;;;;;;;;;2.00;1.00;;;;;17.80;55.48;98571.06;4954290;28;102110;-84
2021/10/23 02:12:05;;;;;;;;;1.00;1.00;;;;;17.81;55.23;98575.47;4955210;28;102174;-84
2021/10/23 02:14:32;;;;;;;;;1.67;1.67;;;;;17.80;55.31;98584.75;4959741;28;102381;-83
2021/10/23 02:16:59;;;;;;;;;0.00;0.00;;;;;17.80;55.61;98595.69;4952982;28;104363;-84
2021/10/23 02:19:26;;;;;;;;;1.00;1.00;;;;;17.80;55.41;98597.59;4958542;28;102159;-83
2021/10/23 02:21:53;;;;;;;;;1.00;1.00;;;;;17.81;55.22;98591.03;4952384;28;102487;-84
2021/10/23 02:24:20;;;;;;;;;1.00;1.00;;;;;17.80;55.24;98603.88;4954526;28;103970;-84
2021/10/23 02:26:48;;;;;;;;;1.00;1.00;;;;;17.79;55.11;98604.97;4946477;28;104037;-85
2021/10/23 02:29:15;;;;;;;;;1.67;1.00;;;;;17.80;55.25;98608.53;4949667;28;103122;-85
2021/10/23 02:31:42;;;;;;;;;0.33;0.00;;;;;17.76;55.49;98605.47;4954271;28;103518;-85
2021/10/23 02:34:09;;;;;;;;;0.00;0.00;;;;;17.78;55.27;98606.06;4956118;28;102624;-84
2021/10/23 02:36:36;;;;;;;;;0.67;0.00;;;;;17.79;55.51;98615.91;4958009;28;108810;-85
2021/10/23 02:39:06;;;;;;;;;0.00;0.00;;;;;17.77;55.14;98607.13;4929309;28;102556;-85
2021/10/23 02:41:33;;;;;;;;;1.00;1.00;;;;;17.78;55.17;98625.19;4923135;28;102926;-84
2021/10/23 02:44:00;;;;;;;;;0.67;0.33;;;;;17.76;55.98;98621.88;4934642;28;106131;-84
2021/10/23 02:46:28;;;;;;;;;1.00;0.00;;;;;17.76;55.24;98619.13;4949212;28;105580;-85
2021/10/23 02:48:55;;;;;;;;;0.00;0.00;;;;;17.75;56.02;98628.41;4946850;28;104100;-84
2021/10/23 02:51:22;;;;;;;;;0.67;0.67;;;;;17.75;55.52;98624.84;4952499;28;102522;-84
2021/10/23 02:53:49;;;;;;;;;0.67;0.67;;;;;17.74;55.82;98632.22;4954581;28;103139;-85
2021/10/23 02:56:16;;;;;;;;;1.00;1.00;;;;;17.73;54.94;98636.06;4944958;28;107036;-83
2021/10/23 02:58:45;;;;;;;;;0.00;0.00;;;;;17.73;56.05;98638.78;4957273;28;103110;-84
2021/10/23 03:01:12;;;;;;;;;1.33;1.00;;;;;17.74;55.04;98634.94;4946239;28;102084;-84
2021/10/23 03:03:39;;;;;;;;;0.00;0.00;;;;;17.73;55.89;98633.31;4960682;28;102432;-85
2021/10/23 03:06:06;;;;;;;;;0.33;0.00;;;;;17.73;54.99;98646.16;4942659;28;105463;-84
2021/10/23 03:08:33;;;;;;;;;0.00;0.00;;;;;17.73;55.49;98637.94;4939225;28;102564;-84
2021/10/23 03:11:03;;;;;;;;;1.33;1.00;;;;;17.72;55.11;98630.81;4952258;28;103475;-84
2021/10/23 03:13:30;;;;;;;;;1.00;0.00;;;;;17.73;55.95;98644.25;4948302;28;102323;-84
2021/10/23 03:15:57;;;;;;;;;1.00;0.00;;;;;17.73;55.16;98640.69;4938122;28;104036;-84
2021/10/23 03:18:24;;;;;;;;;0.00;0.00;;;;;17.71;55.51;98640.91;4939344;28;104659;-84
2021/10/23 03:20:53;;;;;;;;;0.00;0.00;;;;;17.70;55.92;98647.47;4943633;28;103315;-85
2021/10/23 03:23:21;;;;;;;;;0.00;0.00;;;;;17.69;56.06;98651.28;4940497;28;105554;-84
2021/10/23 03:25:48;;;;;;;;;0.00;0.00;;;;;17.70;55.77;98654.81;4934845;28;104325;-83
2021/10/23 03:28:15;;;;;;;;;0.00;0.00;;;;;17.69;55.55;98659.50;4936283;28;102530;-84
2021/10/23 03:30:42;;;;;;;;;0.00;0.00;;;;;17.68;55.00;98663.31;4951329;28;102391;-86
2021/10/23 03:33:11;;;;;;;;;0.00;0.00;;;;;17.68;55.23;98668.78;4953279;28;103077;-85
2021/10/23 03:35:38;;;;;;;;;0.33;0.33;;;;;17.68;55.61;98673.41;4954209;28;104125;-84
2021/10/23 03:38:05;;;;;;;;;0.67;0.67;;;;;17.67;54.88;98672.56;4953870;28;102587;-85
2021/10/23 03:40:33;;;;;;;;;0.00;0.00;;;;;17.67;55.00;98678.03;4951405;28;103395;-84
2021/10/23 03:43:00;;;;;;;;;0.33;0.33;;;;;17.67;54.85;98667.09;4946980;28;102533;-84
2021/10/23 03:45:27;;;;;;;;;1.00;0.00;;;;;17.66;55.20;98676.38;4951609;28;104006;-84
2021/10/23 03:47:54;;;;;;;;;0.00;0.00;;;;;17.65;55.03;98682.09;4956291;28;103192;-83
2021/10/23 03:50:21;;;;;;;;;0.00;0.00;;;;;17.65;55.42;98682.91;4958150;28;102442;-84
2021/10/23 03:52:48;;;;;;;;;0.33;0.00;;;;;17.66;55.12;98686.47;4950376;28;104457;-84
2021/10/23 03:55:15;;;;;;;;;0.00;0.00;;;;;17.65;55.33;98679.38;4957172;28;104081;-84
2021/10/23 03:57:42;;;;;;;;;0.00;0.00;;;;;17.65;55.57;98695.78;4955978;28;102592;-84
2021/10/23 04:00:09;;;;;;;;;0.00;0.00;;;;;17.65;55.62;98693.84;4959407;28;103421;-84
2021/10/23 04:02:37;;;;;;;;;0.00;0.00;;;;;17.63;55.70;98698.75;4957564;28;102183;-85
2021/10/23 04:05:04;;;;;;;;;0.00;0.00;;;;;17.63;55.68;98701.47;4953215;28;104080;-85
2021/10/23 04:07:31;;;;;;;;;1.00;0.33;;;;;17.63;55.70;98703.38;4932762;28;106176;-85
2021/10/23 04:09:59;;;;;;;;;0.00;0.00;;;;;17.62;55.75;98708.03;4935833;28;102803;-85
2021/10/23 04:12:26;;;;;;;;;0.00;0.00;;;;;17.62;55.15;98712.66;4954434;28;102576;-85
2021/10/23 04:14:53;;;;;;;;;0.00;0.00;;;;;17.61;55.44;98711.00;4950922;28;104242;-85
2021/10/23 04:17:20;;;;;;;;;0.00;0.00;;;;;17.60;55.12;98715.66;4960137;28;102364;-85
2021/10/23 04:19:47;;;;;;;;;0.00;0.00;;;;;17.58;55.59;98719.66;4958656;28;102696;-83
2021/10/23 04:22:14;;;;;;;;;1.00;1.00;;;;;17.59;54.86;98724.94;4953852;28;103744;-84
2021/10/23 04:24:41;;;;;;;;;0.00;0.00;;;;;17.60;54.61;98736.69;4947940;28;103982;-85
2021/10/23 04:27:08;;;;;;;;;0.00;0.00;;;;;17.58;55.17;98728.72;4957151;28;104348;-84
2021/10/23 04:29:35;;;;;;;;;1.00;0.00;;;;;17.59;55.61;98733.13;4953031;28;103508;-84
2021/10/23 04:32:03;;;;;;;;;0.00;0.00;;;;;17.59;54.97;98735.03;4954491;28;105838;-84
2021/10/23 04:34:30;;;;;;;;;1.00;0.00;;;;;17.58;55.42;98734.19;4952595;28;104113;-83
2021/10/23 04:36:57;;;;;;;;;0.00;0.00;;;;;17.59;54.38;98733.13;4946534;28;103570;-84
2021/10/23 04:39:24;;;;;;;;;0.00;0.00;;;;;17.57;55.12;98743.44;4951636;28;102804;-85
2021/10/23 04:41:51;;;;;;;;;0.00;0.00;;;;;17.58;55.49;98747.88;4950394;28;111004;-85
2021/10/23 04:44:18;;;;;;;;;0.00;0.00;;;;;17.57;54.60;98743.44;4931793;28;104098;-83
2021/10/23 04:46:45;;;;;;;;;0.00;0.00;;;;;17.57;55.17;98750.81;4950863;28;102729;-84
2021/10/23 04:49:12;;;;;;;;;0.00;0.00;;;;;17.57;55.28;98750.81;4952274;28;102038;-84
2021/10/23 04:51:39;;;;;;;;;0.00;0.00;;;;;17.55;55.22;98753.78;4960028;28;102192;-83
2021/10/23 04:54:07;;;;;;;;;1.00;0.00;;;;;17.55;54.65;98756.53;4954827;28;110674;-83
2021/10/23 04:56:34;;;;;;;;;0.00;0.00;;;;;17.53;54.42;98753.19;4962882;28;102469;-83
2021/10/23 04:59:01;;;;;;;;;1.67;0.00;;;;;17.53;55.20;98753.19;4947497;28;102182;-83
2021/10/23 05:01:28;;;;;;;;;0.00;0.00;;;;;17.53;54.67;98758.66;4950455;28;105129;-84
2021/10/23 05:03:56;;;;;;;;;0.00;0.00;;;;;17.53;54.94;98766.88;4959559;28;103888;-84
2021/10/23 05:06:23;;;;;;;;;0.33;0.00;;;;;17.52;55.15;98767.94;4954835;28;103064;-83
2021/10/23 05:08:50;;;;;;;;;1.00;0.00;;;;;17.52;55.31;98767.94;4935874;28;103393;-83
2021/10/23 05:11:17;;;;;;;;;0.00;0.00;;;;;17.51;55.27;98771.75;4953348;28;102608;-84
2021/10/23 05:13:44;;;;;;;;;0.00;0.00;;;;;17.50;55.34;98775.56;4948264;28;107347;-84
2021/10/23 05:16:14;;;;;;;;;1.00;0.00;;;;;17.51;55.51;98782.69;4954849;28;103494;-84
2021/10/23 05:18:41;;;;;;;;;1.00;0.67;;;;;17.50;54.80;98781.03;4937735;28;102568;-84
2021/10/23 05:21:08;;;;;;;;;0.00;0.00;;;;;17.51;54.55;98781.88;4941248;28;102611;-83
2021/10/23 05:23:35;;;;;;;;;0.00;0.00;;;;;17.50;54.67;98789.22;4949580;28;104082;-85
2021/10/23 05:26:04;;;;;;;;;1.00;0.00;;;;;17.50;54.73;98791.13;4955433;28;102439;-85
2021/10/23 05:28:31;;;;;;;;;1.33;0.00;;;;;17.50;55.05;98797.44;4951473;28;102541;-85
2021/10/23 05:30:59;;;;;;;;;0.00;0.00;;;;;17.48;54.90;98796.81;4948691;28;102770;-86
2021/10/23 05:33:26;;;;;;;;;0.00;0.00;;;;;17.49;54.94;98805.88;4938285;28;105038;-84
2021/10/23 05:35:53;;;;;;;;;0.00;0.00;;;;;17.43;53.12;98818.59;4958808;28;102261;-85
2021/10/23 05:38:20;;;;;;;;;1.00;1.00;;;;;17.43;51.80;98824.06;4952767;28;102762;-85
2021/10/23 05:40:47;;;;;;;;;2.00;1.00;;;;;17.43;54.33;98813.13;4959254;28;102201;-84
2021/10/23 05:43:14;;;;;;;;;0.33;0.33;;;;;17.45;54.22;98821.91;4933185;28;104264;-84
2021/10/23 05:45:41;;;;;;;;;1.00;1.00;;;;;17.44;53.76;98814.78;4938428;28;103663;-86
2021/10/23 05:48:08;;;;;;;;;1.67;1.00;;;;;17.45;54.73;98819.19;4956353;28;102499;-85
2021/10/23 05:50:35;;;;;;;;;0.00;0.00;;;;;17.44;54.55;98825.72;4956956;28;103254;-85
2021/10/23 05:53:02;;;;;;;;;1.00;1.00;;;;;17.43;54.04;98835.00;4950275;28;103997;-86
2021/10/23 05:55:30;;;;;;;;;1.00;1.00;;;;;17.43;54.32;98829.50;4945156;28;104452;-85
2021/10/23 05:57:57;;;;;;;;;0.00;0.00;;;;;17.40;54.01;98830.84;4948365;28;102546;-85
2021/10/23 06:00:24;;;;;;;;;0.00;0.00;;;;;17.43;54.72;98832.25;4950939;28;102645;-85
2021/10/23 06:02:51;;;;;;;;;1.33;1.00;;;;;17.43;54.02;98840.44;4947645;28;103974;-85
2021/10/23 06:05:18;;;;;;;;;1.00;1.00;;;;;17.42;55.05;98837.97;4957394;28;102646;-85
2021/10/23 06:07:45;;;;;;;;;0.00;0.00;;;;;17.42;54.76;98844.28;4943753;28;102653;-84
2021/10/23 06:10:12;;;;;;;;;0.00;0.00;;;;;17.42;54.37;98844.28;4948092;28;112006;-85
2021/10/23 06:12:41;;;;;;;;;1.33;1.00;;;;;17.42;54.76;98847.81;4948650;28;109078;-85
2021/10/23 06:15:08;;;;;;;;;0.67;0.00;;;;;17.40;54.91;98849.97;4954147;28;103344;-84
2021/10/23 06:17:35;;;;;;;;;0.00;0.00;;;;;17.40;54.63;98851.88;4956162;28;102084;-85
2021/10/23 06:20:06;;;;;;;;;1.00;0.00;;;;;17.40;54.62;98857.34;4947521;28;102217;-85
2021/10/23 06:22:33;;;;;;;;;1.00;1.00;;;;;17.39;54.35;98869.34;4924148;28;104138;-85
2021/10/23 06:25:03;;;;;;;;;0.00;0.00;;;;;17.39;54.01;98869.34;4930553;28;102167;-84
2021/10/23 06:27:30;;;;;;;;;1.00;1.00;;;;;17.40;54.78;98874.59;4949527;28;102438;-86
2021/10/23 06:30:03;;;;;;;;;0.67;0.00;;;;;17.40;54.97;98877.31;4944280;28;102357;-84
2021/10/23 06:32:32;;;;;;;;;1.00;0.00;;;;;17.36;54.41;98876.13;4941185;28;104012;-85
2021/10/23 06:34:59;;;;;;;;;0.00;0.00;;;;;17.39;54.19;98883.00;4959493;28;102644;-85
2021/10/23 06:37:26;;;;;;;;;1.00;0.33;;;;;17.39;54.62;98883.84;4938513;28;103040;-85
2021/10/23 06:39:53;;;;;;;;;0.00;0.00;;;;;17.39;54.25;98888.47;4952471;28;104127;-86
2021/10/23 06:42:20;;;;;;;;;0.00;0.00;;;;;17.39;54.38;98891.22;4941487;28;104812;-85
2021/10/23 06:44:50;;;;;;;;;1.00;1.00;;;;;17.40;54.74;98895.63;4956036;28;103382;-86
2021/10/23 06:47:17;;;;;;;;;1.00;1.00;;;;;17.40;54.14;98901.09;4931550;28;102696;-86
2021/10/23 06:49:44;;;;;;;;;0.00;0.00;;;;;17.39;54.28;98904.88;4953976;28;102603;-86
2021/10/23 06:52:11;;;;;;;;;0.33;0.00;;;;;17.40;53.77;98896.44;4954116;28;104050;-85
2021/10/23 06:54:39;;;;;;;;;0.00;0.00;;;;;17.39;54.76;98899.41;4912473;28;102771;-85
2021/10/23 06:57:06;;;;;;;;;1.00;1.00;;;;;17.38;54.74;98900.50;4939618;28;103026;-85
2021/10/23 06:59:53;;;;;;;;;1.33;0.00;;;;;17.40;54.57;98901.09;4959406;28;103960;-86
2021/10/23 07:02:20;;;;;;;;;0.00;0.00;;;;;17.38;54.37;98905.97;4946725;28;105386;-85
2021/10/23 07:04:49;;;;;;;;;0.00;0.00;;;;;17.38;54.89;98900.50;4910333;28;102644;-85
2021/10/23 07:07:17;;;;;;;;;0.00;0.00;;;;;17.38;54.34;98909.50;4929606;28;102981;-84
2021/10/23 07:09:44;;;;;;;;;0.00;0.00;;;;;17.39;54.51;98904.88;4959795;28;102750;-84
2021/10/23 07:12:14;;;;;;;;;2.00;0.00;;;;;17.39;54.33;98915.81;4961190;28;104304;-85
2021/10/23 07:14:41;;;;;;;;;0.67;0.00;;;;;17.39;54.28;98915.81;4959162;28;102572;-86
2021/10/23 07:17:08;;;;;;;;;1.00;1.00;;;;;17.38;53.93;98916.91;4935906;28;104375;-85
2021/10/23 07:19:35;;;;;;;;;1.33;0.67;;;;;17.39;54.99;98913.06;4953944;28;102772;-85
2021/10/23 07:22:02;;;;;;;;;0.00;0.00;;;;;17.39;54.18;98921.28;4937758;28;103043;-83
2021/10/23 07:24:29;;;;;;;;;0.67;0.00;;;;;17.38;53.80;98925.09;4960230;28;103429;-87
2021/10/23 07:26:56;;;;;;;;;0.00;0.00;;;;;17.38;54.82;98931.38;4932356;28;104098;-86
2021/10/23 07:29:23;;;;;;;;;1.67;0.33;;;;;17.39;54.21;98932.22;4937793;28;102382;-84
2021/10/23 07:31:50;;;;;;;;;1.00;1.00;;;;;17.37;54.80;98940.66;4949140;28;104065;-85
2021/10/23 07:34:18;;;;;;;;;0.33;0.00;;;;;17.38;54.72;98936.03;4950588;28;105795;-85
2021/10/23 07:36:45;;;;;;;;;1.00;1.00;;;;;17.35;54.78;98942.78;4922961;28;102523;-85
2021/10/23 07:39:13;;;;;;;;;1.00;1.00;;;;;17.38;54.20;98938.78;4923631;28;102644;-85
2021/10/23 07:41:41;;;;;;;;;0.67;0.67;;;;;17.38;54.07;98933.31;4962129;28;107975;-85
2021/10/23 07:44:09;;;;;;;;;0.33;0.33;;;;;17.38;53.96;98941.50;4932070;28;103489;-84
2021/10/23 07:46:36;;;;;;;;;0.00;0.00;;;;;17.38;54.17;98936.03;4929558;28;102190;-86
2021/10/23 07:49:05;;;;;;;;;0.33;0.00;;;;;17.37;54.88;98934.38;4955815;28;111783;-84
2021/10/23 07:51:35;;;;;;;;;0.00;0.00;;;;;17.38;53.97;98939.56;4919061;28;103913;-85
2021/10/23 07:54:04;;;;;;;;;0.00;0.00;;;;;17.37;54.11;98940.66;4936471;28;102769;-85
2021/10/23 07:56:32;;;;;;;;;1.00;1.00;;;;;17.39;55.00;98948.63;4945388;28;103437;-85
2021/10/23 07:58:59;;;;;;;;;1.00;0.33;;;;;17.38;54.25;98941.50;4948250;28;102404;-83
2021/10/23 08:01:27;;;;;;;;;0.33;0.33;;;;;17.38;54.36;98941.50;4945755;28;104072;-85
2021/10/23 08:03:54;;;;;;;;;1.00;1.00;;;;;17.39;54.69;98943.16;4930961;28;105750;-85
2021/10/23 08:06:21;;;;;;;;;0.00;0.00;;;;;17.36;54.14;98946.38;4931772;28;102737;-84
2021/10/23 08:08:49;;;;;;;;;0.67;0.33;;;;;17.38;54.66;98946.97;4923310;28;103788;-83
2021/10/23 08:11:15;;;;;;;;;0.00;0.00;;;;;17.37;54.55;98957.06;4921531;28;104003;-84
2021/10/23 08:13:46;;;;;;;;;0.00;0.00;;;;;17.38;54.55;98953.25;4945946;28;102511;-85
2021/10/23 08:16:13;;;;;;;;;0.00;0.00;;;;;17.39;54.38;98962.28;4950284;28;102634;-85
2021/10/23 08:18:41;;;;;;;;;1.67;1.00;;;;;17.39;53.99;98959.56;4949788;28;102557;-84
2021/10/23 08:21:08;;;;;;;;;0.67;0.67;;;;;17.39;53.70;98982.25;4946014;28;103145;-84
2021/10/23 08:23:35;;;;;;;;;1.67;0.00;;;;;17.39;53.91;98987.72;4943427;28;105654;-84
2021/10/23 08:26:03;;;;;;;;;0.00;0.00;;;;;17.39;54.01;98986.88;4936494;28;102994;-85
2021/10/23 08:28:30;;;;;;;;;1.00;0.00;;;;;17.40;53.76;98972.16;4952017;28;103485;-86
2021/10/23 08:30:58;;;;;;;;;0.33;0.00;;;;;17.39;54.52;98975.94;4955319;28;104045;-84
2021/10/23 08:33:26;;;;;;;;;1.00;1.00;;;;;17.39;53.90;98982.25;4920547;28;102543;-86
2021/10/23 08:35:53;;;;;;;;;0.00;0.00;;;;;17.39;54.32;98984.16;4893544;28;103681;-85
2021/10/23 08:38:20;;;;;;;;;0.00;0.00;;;;;17.40;53.97;98991.28;4890381;28;102626;-86
2021/10/23 08:40:47;;;;;;;;;0.00;0.00;;;;;17.39;54.33;98992.34;4912444;28;104165;-85
2021/10/23 08:43:17;;;;;;;;;0.33;0.33;;;;;17.39;54.25;98998.66;4921909;28;102540;-85
2021/10/23 08:45:44;;;;;;;;;1.00;0.00;;;;;17.39;54.00;98990.47;4906364;28;102636;-85
2021/10/23 08:48:11;;;;;;;;;0.00;0.00;;;;;17.39;53.77;99000.56;4895241;28;103388;-85
2021/10/23 08:50:38;;;;;;;;;2.00;1.33;;;;;17.40;54.47;98996.75;4904673;28;103930;-85
2021/10/23 08:53:05;;;;;;;;;0.00;0.00;;;;;17.36;53.89;98996.41;4885393;28;103584;-84
2021/10/23 08:55:32;;;;;;;;;1.00;0.00;;;;;17.39;54.05;98992.34;4901314;28;102596;-85
2021/10/23 08:57:59;;;;;;;;;0.00;0.00;;;;;17.40;54.43;98999.50;4881946;28;102621;-85
2021/10/23 09:00:26;;;;;;;;;0.00;0.00;;;;;17.41;53.94;98995.69;4864473;28;104085;-85
2021/10/23 09:02:54;;;;;;;;;0.67;0.00;;;;;17.42;53.74;99002.84;4920140;28;102039;-84
2021/10/23 09:05:22;;;;;;;;;0.00;0.00;;;;;17.41;54.00;99001.16;4909095;28;103163;-84
2021/10/23 09:07:50;;;;;;;;;0.00;0.00;;;;;17.40;53.33;99000.34;4904832;28;102279;-85
2021/10/23 09:10:23;;;;;;;;;0.33;0.33;;;;;17.40;53.21;98999.50;4947327;28;104057;-84
2021/10/23 09:13:06;;;;;;;;;0.00;0.00;;;;;17.40;53.61;99000.34;4938522;28;102410;-85
2021/10/23 09:15:38;;;;;;;;;1.00;1.00;;;;;17.41;53.67;99012.09;4957464;28;102652;-85
2021/10/23 09:18:06;;;;;;;;;0.00;0.00;;;;;17.40;53.20;99004.97;4952672;28;103295;-85
2021/10/23 09:20:40;;;;;;;;;1.00;1.00;;;;;17.40;54.17;99010.44;4956857;28;103849;-85
2021/10/23 09:23:15;;;;;;;;;0.00;0.00;;;;;17.40;54.34;99026.84;4949605;28;103089;-83
2021/10/23 09:25:43;;;;;;;;;0.00;0.00;;;;;17.39;53.43;99027.91;4955607;28;102155;-84
2021/10/23 09:28:14;;;;;;;;;0.33;0.00;;;;;17.40;54.00;99029.56;4960064;28;102269;-85
2021/10/23 09:30:43;;;;;;;;;0.00;0.00;;;;;17.39;53.75;99025.16;4928449;28;108845;-85
2021/10/23 09:33:21;;;;;;;;;0.33;0.33;;;;;17.40;53.49;99029.56;4954727;28;102700;-85
2021/10/23 09:35:49;;;;;;;;;0.33;0.00;;;;;17.39;53.89;99039.66;4956351;28;102398;-86
2021/10/23 09:38:28;;;;;;;;;0.67;0.67;;;;;17.39;54.26;99031.47;4952743;28;103686;-85
2021/10/23 09:40:56;;;;;;;;;0.00;0.00;;;;;17.40;54.27;99027.66;4949049;28;104475;-85
2021/10/23 09:43:25;;;;;;;;;1.00;0.00;;;;;17.40;53.46;99022.19;4957320;28;102519;-84
2021/10/23 09:45:55;;;;;;;;;1.00;0.00;;;;;17.41;53.65;99033.97;4918568;28;102863;-85
2021/10/23 09:48:50;;;;;;;;;0.00;0.00;;;;;17.42;53.91;99041.13;4955481;28;102461;-84
2021/10/23 09:51:21;;;;;;;;;0.00;0.00;;;;;17.39;53.37;99044.28;4946099;28;108598;-85
2021/10/23 09:54:13;;;;;;;;;0.00;0.00;;;;;17.42;54.02;99040.28;4942107;28;102673;-85
2021/10/23 09:56:40;;;;;;;;;0.00;0.00;;;;;17.41;54.09;99031.25;4939638;28;104778;-85
2021/10/23 09:59:09;;;;;;;;;1.00;1.00;;;;;17.41;54.33;99031.25;4939103;28;102441;-85
2021/10/23 10:01:40;;;;;;;;;0.00;0.00;;;;;17.42;54.31;99030.19;4952562;28;104059;-84
2021/10/23 10:04:10;;;;;;;;;1.00;0.00;;;;;17.42;53.58;99024.72;4949470;28;102195;-85
2021/10/23 10:06:41;;;;;;;;;0.67;0.00;;;;;17.42;53.68;99026.59;4954962;28;103434;-84
2021/10/23 10:09:10;;;;;;;;;2.00;0.00;;;;;17.42;53.04;99035.66;4957836;28;102457;-82
2021/10/23 10:11:37;;;;;;;;;1.00;0.67;;;;;17.41;53.41;99033.97;4956531;28;104130;-85
2021/10/23 10:14:11;;;;;;;;;0.00;0.00;;;;;17.38;54.00;99034.44;4943083;28;104360;-84
2021/10/23 10:16:42;;;;;;;;;0.00;0.00;;;;;17.39;53.19;99038.81;4955608;28;102512;-85
2021/10/23 10:19:10;;;;;;;;;0.67;0.67;;;;;17.42;54.26;99032.91;4933903;28;103138;-83
2021/10/23 10:21:37;;;;;;;;;0.00;0.00;;;;;17.42;53.63;99035.66;4952553;28;104058;-85
2021/10/23 10:24:38;;;;;;;;;1.00;0.00;;;;;17.43;53.26;99040.03;4952481;28;102312;-84
2021/10/23 10:27:06;;;;;;;;;0.00;0.00;;;;;17.43;53.60;99042.75;4895884;28;102653;-85
2021/10/23 10:29:40;;;;;;;;;1.00;0.00;;;;;17.42;52.76;99050.13;4954863;28;102662;-85
2021/10/23 10:34:41;;;;;;;;;0.00;0.00;;;;;17.44;53.07;99049.91;4959137;28;102648;-85
2021/10/23 10:42:50;;;;;;;;;0.00;0.00;;;;;17.44;53.29;99044.44;4960966;28;103979;-85
2021/10/23 10:45:26;;;;;;;;;0.67;0.67;;;;;17.44;53.62;99038.97;4951708;28;102657;-85
2021/10/23 10:48:15;;;;;;;;;0.00;0.00;;;;;17.44;53.92;99049.91;4955584;28;102488;-85
2021/10/23 10:50:44;;;;;;;;;0.00;0.00;;;;;17.43;53.23;99059.16;4948199;28;102541;-85
2021/10/23 10:53:33;;;;;;;;;0.33;0.00;;;;;17.44;53.46;99049.06;4950628;28;109873;-85
2021/10/23 10:56:03;;;;;;;;;0.00;0.00;;;;;17.43;53.79;99050.97;4934834;28;102782;-84
2021/10/23 10:58:49;;;;;;;;;0.00;0.00;;;;;17.42;53.73;99050.13;4949151;28;103229;-84
2021/10/23 11:01:20;;;;;;;;;0.00;0.00;;;;;17.44;53.21;99060.00;4945122;28;103297;-84
2021/10/23 11:04:02;;;;;;;;;0.00;0.00;;;;;17.44;53.60;99065.47;4950824;28;103946;-85
2021/10/23 11:06:39;;;;;;;;;0.00;0.00;;;;;17.44;53.51;99068.19;4931022;28;102273;-85
2021/10/23 11:09:11;;;;;;;;;0.00;0.00;;;;;17.44;53.64;99065.47;4952311;28;102167;-85
2021/10/23 11:11:47;;;;;;;;;0.33;0.33;;;;;17.43;53.51;99067.34;4952685;28;102217;-85
2021/10/23 11:14:23;;;;;;;;;1.00;0.00;;;;;17.44;53.48;99055.38;4952437;28;108790;-84
2021/10/23 11:16:57;;;;;;;;;0.00;0.00;;;;;17.44;53.66;99055.38;4951571;28;102229;-84
2021/10/23 11:19:53;;;;;;;;;0.00;0.00;;;;;17.44;53.12;99055.38;4954498;28;102462;-84
2021/10/23 11:22:34;;;;;;;;;1.33;0.00;;;;;17.44;53.18;99051.78;4950472;28;102730;-85
2021/10/23 11:25:06;;;;;;;;;0.00;0.00;;;;;17.43;52.93;99059.16;4952837;28;103980;-85
2021/10/23 11:27:41;;;;;;;;;0.00;0.00;;;;;17.42;54.03;99066.53;4954111;28;102516;-84
2021/10/23 11:30:17;;;;;;;;;0.00;0.00;;;;;17.44;53.53;99060.84;4952148;28;103423;-85
2021/10/23 11:32:47;;;;;;;;;0.00;0.00;;;;;17.45;52.70;99073.44;4951689;28;102535;-85
2021/10/23 11:35:14;;;;;;;;;0.00;0.00;;;;;17.43;53.37;99072.84;4959075;28;109210;-85
2021/10/23 11:37:51;;;;;;;;;2.00;1.00;;;;;17.45;53.25;99067.97;4931801;28;102655;-85
2021/10/23 11:40:18;;;;;;;;;1.67;0.00;;;;;17.44;53.52;99066.31;4936264;28;102071;-85